createdAt,value
2018-10-05T00:02:00.374Z,50.88
2018-10-05T00:04:30.691Z,51.13
2018-10-05T00:07:00.913Z,51.23
2018-10-05T00:09:31.124Z,51.99
2018-10-05T00:12:01.464Z,51.10
2018-10-05T00:14:31.708Z,51.89
2018-10-05T00:17:02.026Z,51.95
2018-10-05T00:19:32.195Z,51.59
2018-10-05T00:22:04.200Z,51.36
2018-10-05T00:24:34.383Z,51.29
2018-10-05T00:27:04.556Z,51.74
2018-10-05T00:29:34.964Z,51.72
2018-10-05T00:32:05.501Z,51.77
2018-10-05T00:34:36.386Z,52.12
2018-10-05T00:37:06.574Z,52.03
2018-10-05T00:39:36.780Z,52.68
2018-10-05T00:42:06.994Z,52.69
2018-10-05T00:44:38.226Z,53.22
2018-10-05T00:47:08.415Z,53.25
2018-10-05T00:49:39.468Z,53.25
2018-10-05T00:52:10.718Z,52.84
2018-10-05T00:54:41.740Z,53.14
2018-10-05T00:57:12.115Z,53.39
2018-10-05T00:59:42.120Z,53.78
2018-10-05T01:02:12.458Z,53.92
2018-10-05T01:04:42.721Z,53.91
2018-10-05T01:07:14.088Z,54.38
2018-10-05T01:09:44.594Z,54.24
2018-10-05T01:12:15.000Z,54.77
2018-10-05T01:14:45.092Z,54.96
2018-10-05T01:17:15.314Z,54.68
2018-10-05T01:19:46.097Z,54.66
2018-10-05T01:22:16.463Z,54.71
2018-10-05T01:24:46.554Z,55.43
2018-10-05T01:27:16.733Z,55.66
2018-10-05T01:29:46.677Z,56.04
2018-10-05T01:32:17.029Z,56.36
2018-10-05T01:34:48.174Z,56.19
2018-10-05T01:37:18.409Z,55.85
2018-10-05T01:39:48.774Z,56.11
2018-10-05T01:42:20.251Z,56.55
2018-10-05T01:44:50.769Z,56.45
2018-10-05T01:47:21.056Z,56.16
2018-10-05T01:49:51.156Z,56.19
2018-10-05T01:52:22.181Z,56.70
2018-10-05T01:54:54.091Z,56.17
2018-10-05T01:57:25.411Z,57.08
2018-10-05T01:59:55.462Z,57.63
2018-10-05T02:02:25.847Z,57.51
2018-10-05T02:04:56.951Z,56.88
2018-10-05T02:07:27.117Z,57.42
2018-10-05T02:09:56.986Z,56.52
2018-10-05T02:12:27.246Z,56.71
2018-10-05T02:14:58.416Z,56.95
2018-10-05T02:17:28.540Z,56.66
2018-10-05T02:19:58.516Z,55.90
2018-10-05T02:22:28.813Z,55.13
2018-10-05T02:24:58.914Z,54.92
2018-10-05T02:27:29.255Z,54.47
2018-10-05T02:29:59.475Z,54.96
2018-10-05T02:32:29.717Z,55.65
2018-10-05T02:34:59.935Z,56.39
2018-10-05T02:37:30.280Z,56.86
2018-10-05T02:40:00.569Z,56.17
2018-10-05T02:42:30.900Z,56.17
2018-10-05T02:45:01.198Z,56.83
2018-10-05T02:47:31.411Z,57.54
2018-10-05T02:50:01.525Z,59.50
2018-10-05T02:52:33.114Z,58.08
2018-10-05T02:55:04.313Z,57.62
2018-10-05T02:57:34.470Z,57.71
2018-10-05T03:00:04.623Z,57.65
2018-10-05T03:02:36.345Z,56.86
2018-10-05T03:05:07.457Z,56.61
2018-10-05T03:07:37.689Z,56.77
2018-10-05T03:10:07.822Z,57.21
2018-10-05T03:12:37.961Z,58.47
2018-10-05T03:15:08.053Z,60.01
2018-10-05T03:17:38.292Z,61.41
2018-10-05T03:20:08.590Z,62.91
2018-10-05T03:22:38.626Z,65.20
2018-10-05T03:25:09.666Z,67.39
2018-10-05T03:27:40.223Z,69.18
2018-10-05T03:30:10.366Z,70.27
2018-10-05T03:32:40.502Z,70.56
2018-10-05T03:35:11.333Z,70.50
2018-10-05T03:37:41.597Z,71.37
2018-10-05T03:40:13.885Z,73.96
2018-10-05T03:42:44.710Z,73.82
2018-10-05T03:45:15.842Z,74.81
2018-10-05T03:47:47.039Z,75.76
2018-10-05T03:50:17.140Z,75.38
2018-10-05T03:52:47.863Z,76.80
2018-10-05T03:55:18.223Z,77.08
2018-10-05T03:57:48.500Z,77.71
2018-10-05T04:00:18.864Z,77.33
2018-10-05T04:02:49.180Z,77.94
2018-10-05T04:05:19.650Z,77.77
2018-10-05T04:07:50.009Z,78.28
2018-10-05T04:10:20.730Z,79.44
2018-10-05T04:12:50.916Z,80.23
2018-10-05T04:15:21.260Z,79.67
2018-10-05T04:17:51.498Z,80.27
2018-10-05T04:20:23.083Z,80.36
2018-10-05T04:22:53.398Z,80.45
2018-10-05T04:25:24.766Z,80.80
2018-10-05T04:27:54.929Z,80.77
2018-10-05T04:30:25.321Z,80.98
2018-10-05T04:32:55.304Z,80.50
2018-10-05T04:35:26.343Z,80.56
2018-10-05T04:37:56.553Z,79.92
2018-10-05T04:40:26.898Z,80.22
2018-10-05T04:42:57.206Z,80.03
2018-10-05T04:45:28.592Z,80.08
2018-10-05T04:47:59.007Z,80.57
2018-10-05T04:50:29.419Z,80.71
2018-10-05T04:53:01.295Z,79.87
2018-10-05T04:55:31.357Z,79.61
2018-10-05T04:58:02.147Z,79.60
2018-10-05T05:00:33.017Z,78.83
2018-10-05T05:03:03.571Z,77.89
2018-10-05T05:05:35.279Z,77.62
2018-10-05T05:08:07.522Z,77.69
2018-10-05T05:10:37.568Z,77.52
2018-10-05T05:13:08.753Z,76.60
2018-10-05T05:15:39.648Z,76.27
2018-10-05T05:18:09.572Z,75.84
2018-10-05T05:20:39.625Z,75.12
2018-10-05T05:23:09.821Z,75.24
2018-10-05T05:25:41.056Z,74.64
2018-10-05T05:28:11.000Z,73.82
2018-10-05T05:30:41.082Z,73.70
2018-10-05T05:33:11.392Z,73.98
2018-10-05T05:35:41.589Z,73.80
2018-10-05T05:38:12.015Z,74.34
2018-10-05T05:40:42.079Z,74.45
2018-10-05T05:43:12.349Z,75.06
2018-10-05T05:45:42.500Z,74.50
2018-10-05T05:48:13.564Z,74.22
2018-10-05T05:50:43.470Z,74.12
2018-10-05T05:53:13.502Z,73.60
2018-10-05T05:55:43.709Z,72.97
2018-10-05T05:58:13.981Z,73.72
2018-10-05T06:00:44.149Z,72.88
2018-10-05T06:03:14.605Z,73.19
2018-10-05T06:05:45.703Z,72.57
2018-10-05T06:08:15.992Z,71.78
2018-10-05T06:10:46.120Z,72.52
2018-10-05T06:13:16.364Z,73.32
2018-10-05T06:15:46.544Z,73.19
2018-10-05T06:18:16.503Z,73.17
2018-10-05T06:20:46.430Z,73.39
2018-10-05T06:23:16.367Z,73.77
2018-10-05T06:25:47.632Z,72.96
2018-10-05T06:28:17.712Z,73.03
2018-10-05T06:30:48.073Z,72.95
2018-10-05T06:33:18.431Z,73.06
2018-10-05T06:35:49.496Z,74.00
2018-10-05T06:38:19.532Z,73.46
2018-10-05T06:40:49.646Z,73.64
2018-10-05T06:43:20.453Z,74.29
2018-10-05T06:45:50.866Z,73.31
2018-10-05T06:48:21.303Z,73.82
2018-10-05T06:50:51.479Z,73.83
2018-10-05T06:53:21.946Z,74.24
2018-10-05T06:55:52.059Z,74.43
2018-10-05T06:58:22.370Z,74.57
2018-10-05T07:00:52.646Z,74.65
2018-10-05T07:03:22.830Z,75.05
2018-10-05T07:05:53.719Z,75.03
2018-10-05T07:08:23.934Z,74.76
2018-10-05T07:10:53.991Z,74.81
2018-10-05T07:24:59.714Z,73.60
2018-10-05T07:27:45.110Z,73.89
2018-10-05T07:33:09.304Z,74.23
2018-10-05T07:35:40.977Z,74.56
2018-10-05T07:38:11.537Z,75.38
2018-10-05T07:40:42.982Z,75.76
2018-10-05T07:43:13.281Z,75.54
2018-10-05T07:45:43.798Z,76.06
2018-10-05T07:48:14.933Z,75.86
2018-10-05T07:50:47.019Z,75.07
2018-10-05T07:53:18.518Z,76.19
2018-10-05T07:55:49.267Z,75.10
2018-10-05T07:58:20.228Z,75.25
2018-10-05T08:00:50.611Z,74.51
2018-10-05T08:03:20.919Z,75.17
2018-10-05T08:05:52.009Z,74.98
2018-10-05T08:08:22.884Z,75.32
2018-10-05T08:10:53.302Z,74.24
2018-10-05T08:13:23.557Z,74.48
2018-10-05T08:15:53.612Z,74.82
2018-10-05T08:18:24.026Z,74.38
2018-10-05T08:20:55.136Z,74.30
2018-10-05T08:23:25.467Z,75.14
2018-10-05T08:25:56.041Z,75.07
2018-10-05T08:28:27.376Z,74.22
2018-10-05T08:30:57.687Z,73.79
2018-10-05T08:45:26.637Z,73.52
2018-10-05T08:47:57.112Z,73.36
2018-10-05T08:50:27.151Z,73.22
2018-10-05T08:52:57.206Z,71.92
2018-10-05T08:55:27.488Z,71.04
2018-10-05T08:57:57.614Z,69.94
2018-10-05T09:00:29.881Z,67.49
2018-10-05T09:03:01.331Z,67.96
2018-10-05T09:05:31.709Z,68.05
2018-10-05T09:08:02.132Z,67.05
2018-10-05T09:10:32.493Z,66.21
2018-10-05T09:13:03.803Z,66.23
2018-10-05T09:15:34.093Z,65.86
2018-10-05T09:18:04.474Z,65.17
2018-10-05T09:20:34.454Z,65.71
2018-10-05T09:23:05.104Z,63.73
2018-10-05T09:25:35.920Z,63.27
2018-10-05T09:28:06.179Z,62.83
2018-10-05T09:30:37.546Z,60.98
2018-10-05T09:33:07.711Z,58.67
2018-10-05T09:35:37.996Z,58.60
2018-10-05T09:38:08.014Z,56.90
2018-10-05T09:40:38.226Z,58.96
2018-10-05T09:43:08.467Z,56.41
2018-10-05T09:45:38.742Z,55.86
2018-10-05T09:48:08.788Z,57.94
2018-10-05T09:50:39.052Z,55.51
2018-10-05T09:53:09.407Z,54.50
2018-10-05T09:55:41.693Z,53.76
2018-10-05T09:58:11.876Z,51.98
2018-10-05T10:00:49.021Z,52.02
2018-10-05T10:03:24.223Z,52.21
2018-10-05T10:05:54.482Z,51.95
2018-10-05T10:08:25.118Z,51.37
2018-10-05T10:10:55.177Z,51.93
2018-10-05T10:13:25.527Z,50.22
2018-10-05T10:15:56.801Z,50.30
2018-10-05T10:18:28.044Z,50.31
2018-10-05T10:20:58.230Z,51.48
2018-10-05T10:23:28.460Z,51.37
2018-10-05T10:26:00.310Z,51.41
2018-10-05T10:28:30.545Z,50.88
2018-10-05T10:31:00.445Z,50.97
2018-10-05T10:33:30.799Z,50.10
2018-10-05T10:36:02.144Z,50.46
2018-10-05T10:38:32.349Z,50.63
2018-10-05T10:41:02.421Z,49.74
2018-10-05T10:43:32.794Z,48.84
2018-10-05T10:46:02.911Z,48.61
2018-10-05T10:48:34.231Z,49.72
2018-10-05T10:51:04.118Z,47.94
2018-10-05T10:53:35.459Z,47.74
2018-10-05T10:56:06.861Z,49.05
2018-10-05T10:58:38.518Z,48.44
2018-10-05T11:01:10.275Z,48.71
2018-10-05T11:03:40.202Z,48.97
2018-10-05T11:06:11.050Z,49.02
2018-10-05T11:08:41.139Z,50.87
2018-10-05T11:11:11.657Z,50.68
2018-10-05T11:13:41.900Z,49.20
2018-10-05T11:16:11.899Z,50.97
2018-10-05T11:18:42.325Z,51.63
2018-10-05T11:21:12.438Z,51.76
2018-10-05T11:23:42.590Z,53.60
2018-10-05T11:26:12.713Z,51.86
2018-10-05T11:28:42.952Z,53.79
2018-10-05T11:31:13.283Z,54.45
2018-10-05T11:33:43.692Z,53.12
2018-10-05T11:36:13.842Z,53.10
2018-10-05T11:38:44.012Z,54.03
2018-10-05T11:41:14.286Z,53.17
2018-10-05T11:43:44.666Z,53.48
2018-10-05T11:46:15.693Z,53.88
2018-10-05T11:48:45.979Z,55.32
2018-10-05T11:51:16.466Z,55.78
2018-10-05T11:53:46.536Z,55.68
2018-10-05T11:56:21.391Z,55.09
2018-10-05T11:58:51.585Z,55.73
2018-10-05T12:01:22.593Z,55.31
2018-10-05T12:03:53.422Z,56.46
2018-10-05T12:06:24.553Z,56.74
2018-10-05T12:08:54.811Z,56.97
2018-10-05T12:11:24.882Z,57.48
2018-10-05T12:13:55.606Z,56.65
2018-10-05T12:16:26.337Z,55.68
2018-10-05T12:18:56.751Z,56.16
2018-10-05T12:21:27.430Z,57.04
2018-10-05T12:23:57.714Z,56.93
2018-10-05T12:26:28.101Z,56.35
2018-10-05T12:28:59.339Z,56.38
2018-10-05T12:31:29.576Z,56.20
2018-10-05T12:34:01.046Z,56.51
2018-10-05T12:36:32.256Z,57.03
2018-10-05T12:39:02.340Z,57.86
2018-10-05T12:41:32.674Z,57.78
2018-10-05T12:44:02.774Z,57.48
2018-10-05T12:46:33.600Z,57.21
2018-10-05T12:49:04.397Z,57.75
2018-10-05T12:51:34.687Z,58.14
2018-10-05T12:54:05.153Z,57.77
2018-10-05T12:56:36.752Z,57.38
2018-10-05T12:59:07.033Z,57.39
2018-10-05T13:01:37.387Z,58.27
2018-10-05T13:04:10.062Z,57.11
2018-10-05T13:06:42.737Z,57.39
2018-10-05T13:09:12.688Z,58.47
2018-10-05T13:11:42.843Z,57.50
2018-10-05T13:14:13.752Z,58.23
2018-10-05T13:16:44.916Z,57.58
2018-10-05T13:19:15.222Z,59.41
2018-10-05T13:21:46.096Z,58.42
2018-10-05T13:24:16.525Z,56.33
2018-10-05T13:26:47.078Z,57.42
2018-10-05T13:29:17.199Z,58.74
2018-10-05T13:31:47.951Z,58.82
2018-10-05T13:34:19.412Z,58.03
2018-10-05T13:36:49.897Z,57.80
2018-10-05T13:39:20.451Z,58.50
2018-10-05T13:41:50.865Z,58.70
2018-10-05T13:44:22.560Z,59.22
2018-10-05T13:46:53.295Z,59.85
2018-10-05T13:49:23.725Z,60.35
2018-10-05T13:52:02.990Z,59.76
2018-10-05T13:54:33.536Z,59.30
2018-10-05T13:57:05.466Z,59.35
2018-10-05T13:59:36.540Z,59.62
2018-10-05T14:02:07.023Z,58.70
2018-10-05T14:04:37.241Z,59.39
2018-10-05T14:07:08.016Z,59.39
2018-10-05T14:09:38.282Z,59.84
2018-10-05T14:12:08.829Z,59.36
2018-10-05T14:14:39.038Z,60.13
2018-10-05T14:17:09.380Z,59.17
2018-10-05T14:19:40.453Z,58.95
2018-10-05T14:22:14.945Z,59.78
2018-10-05T14:24:45.840Z,58.79
2018-10-05T14:27:16.319Z,58.80
2018-10-05T14:29:47.254Z,60.40
2018-10-05T14:32:18.518Z,60.51
2018-10-05T14:34:49.017Z,60.55
2018-10-05T14:37:19.408Z,60.21
2018-10-05T14:39:49.848Z,59.64
2018-10-05T14:42:20.787Z,61.34
2018-10-05T14:44:51.617Z,61.86
2018-10-05T14:47:22.841Z,62.28
2018-10-05T14:49:53.751Z,63.50
2018-10-05T14:52:24.604Z,63.21
2018-10-05T14:54:56.361Z,62.52
2018-10-05T14:57:30.920Z,61.51
2018-10-05T15:00:02.208Z,62.76
2018-10-05T15:02:33.097Z,63.08
2018-10-05T15:05:03.542Z,62.38
2018-10-05T15:07:39.104Z,62.59
2018-10-05T15:10:10.956Z,64.15
2018-10-05T15:12:41.423Z,63.78
2018-10-05T15:15:12.603Z,64.62
2018-10-05T15:17:43.146Z,65.79
2018-10-05T15:20:13.305Z,66.78
2018-10-05T15:22:43.761Z,66.81
2018-10-05T15:25:14.045Z,66.81
2018-10-05T15:27:45.246Z,67.03
2018-10-05T15:30:16.190Z,66.91
2018-10-05T15:32:47.112Z,67.70
2018-10-05T15:35:18.444Z,68.15
2018-10-05T15:37:50.021Z,68.84
2018-10-05T15:40:20.045Z,69.11
2018-10-05T15:42:50.324Z,70.00
2018-10-05T15:45:20.518Z,71.02
2018-10-05T15:47:51.068Z,72.02
2018-10-05T15:50:22.280Z,72.16
2018-10-05T15:52:53.510Z,72.75
2018-10-05T15:55:24.638Z,73.52
2018-10-05T15:57:55.941Z,74.08
2018-10-05T16:00:26.021Z,74.84
2018-10-05T16:02:56.359Z,75.87
2018-10-05T16:05:27.635Z,75.38
2018-10-05T16:07:58.335Z,75.77
2018-10-05T16:10:28.588Z,75.67
2018-10-05T16:13:00.168Z,76.73
2018-10-05T16:15:30.826Z,76.96
2018-10-05T16:18:02.610Z,76.84
2018-10-05T16:20:33.238Z,76.49
2018-10-05T16:23:05.203Z,77.44
2018-10-05T16:25:35.528Z,77.16
2018-10-05T16:28:06.933Z,77.43
2018-10-05T16:30:37.426Z,78.75
2018-10-05T16:33:09.832Z,78.63
2018-10-05T16:35:40.303Z,78.65
2018-10-05T16:38:11.009Z,78.10
2018-10-05T16:40:45.882Z,78.33
2018-10-05T16:43:17.098Z,77.84
2018-10-05T16:45:48.383Z,78.15
2018-10-05T16:48:22.864Z,78.08
2018-10-05T16:50:54.968Z,78.34
2018-10-05T16:53:25.527Z,78.33
2018-10-05T16:56:01.912Z,79.48
2018-10-05T16:58:32.453Z,79.33
2018-10-05T17:01:02.815Z,78.91
2018-10-05T17:03:34.391Z,79.03
2018-10-05T17:06:11.315Z,80.44
2018-10-05T17:08:43.645Z,80.19
2018-10-05T17:11:14.016Z,80.23
2018-10-05T17:13:44.405Z,80.21
2018-10-05T17:16:16.952Z,81.17
2018-10-05T17:18:47.545Z,80.52
2018-10-05T17:21:19.096Z,81.45
2018-10-05T17:23:49.906Z,81.54
2018-10-05T17:26:28.974Z,81.86
2018-10-05T17:28:59.284Z,82.16
2018-10-05T17:31:31.135Z,82.90
2018-10-05T17:34:02.604Z,82.23
2018-10-05T17:36:33.381Z,82.56
2018-10-05T17:39:04.398Z,82.42
2018-10-05T17:41:34.864Z,82.84
2018-10-05T17:44:05.164Z,81.98
2018-10-05T17:46:35.849Z,82.65
2018-10-05T17:49:08.337Z,82.27
2018-10-05T17:51:38.626Z,82.44
2018-10-05T17:54:10.950Z,81.46
2018-10-05T17:56:41.790Z,81.98
2018-10-05T17:59:13.186Z,81.98
2018-10-05T18:01:43.673Z,82.29
2018-10-05T18:04:14.120Z,82.13
2018-10-05T18:06:45.363Z,82.81
2018-10-05T18:09:16.068Z,84.07
2018-10-05T18:11:47.618Z,83.43
2018-10-05T18:14:18.076Z,83.21
2018-10-05T18:16:48.283Z,83.61
2018-10-05T18:19:19.488Z,82.92
2018-10-05T18:21:54.672Z,82.78
2018-10-05T18:24:26.677Z,82.85
2018-10-05T18:26:58.747Z,83.38
2018-10-05T18:32:05.679Z,83.66
2018-10-05T18:34:36.204Z,83.19
2018-10-05T18:37:07.856Z,82.46
2018-10-05T18:39:38.000Z,82.32
2018-10-05T18:42:08.258Z,83.19
2018-10-05T18:44:44.591Z,83.18
2018-10-05T18:47:14.840Z,82.46
2018-10-05T18:49:45.366Z,82.25
2018-10-05T18:52:16.614Z,82.44
2018-10-05T18:54:47.471Z,83.02
2018-10-05T18:57:22.474Z,83.58
2018-10-05T18:59:52.604Z,82.77
2018-10-05T19:02:22.600Z,82.50
2018-10-05T19:04:52.976Z,82.28
2018-10-05T19:07:23.287Z,82.24
2018-10-05T19:09:57.615Z,82.58
2018-10-05T19:12:28.369Z,82.85
2018-10-05T19:14:58.468Z,82.67
2018-10-05T19:17:28.646Z,83.50
2018-10-05T19:19:58.948Z,83.06
2018-10-05T19:22:30.952Z,82.55
2018-10-05T19:25:02.021Z,82.65
2018-10-05T19:27:32.714Z,81.06
2018-10-05T19:30:02.936Z,80.48
2018-10-05T19:32:34.285Z,81.46
2018-10-05T19:35:04.413Z,81.30
2018-10-05T19:37:36.222Z,81.46
2018-10-05T19:40:08.798Z,81.33
2018-10-05T19:42:39.084Z,82.10
2018-10-05T19:45:09.942Z,82.43
2018-10-05T19:47:40.526Z,81.52
2018-10-05T19:50:10.642Z,82.03
2018-10-05T19:52:42.536Z,82.75
2018-10-05T19:55:14.106Z,83.05
2018-10-05T19:57:45.201Z,82.16
2018-10-05T20:00:15.611Z,81.92
2018-10-05T20:02:46.591Z,82.75
2018-10-05T20:05:16.966Z,82.37
2018-10-05T20:07:49.329Z,83.27
2018-10-05T20:10:19.992Z,83.59
2018-10-05T20:12:50.344Z,83.42
2018-10-05T20:15:21.058Z,83.38
2018-10-05T20:17:51.456Z,83.13
2018-10-05T20:20:23.639Z,83.47
2018-10-05T20:22:54.841Z,82.65
2018-10-05T20:25:27.147Z,82.31
2018-10-05T20:27:59.943Z,82.88
2018-10-05T20:30:30.385Z,83.30
2018-10-05T20:33:01.016Z,82.63
2018-10-05T20:35:31.790Z,83.08
2018-10-05T20:38:04.757Z,82.79
2018-10-05T20:40:35.486Z,82.38
2018-10-05T20:43:05.721Z,82.41
2018-10-05T20:45:36.158Z,82.12
2018-10-05T20:48:06.382Z,81.83
2018-10-05T20:50:36.925Z,81.83
2018-10-05T20:53:07.547Z,81.59
2018-10-05T20:55:37.941Z,81.17
2018-10-05T20:58:08.321Z,81.50
2018-10-05T21:03:07.334Z,80.87
2018-10-05T21:05:37.601Z,80.38
2018-10-05T21:08:07.711Z,80.13
2018-10-05T21:10:37.953Z,80.02
2018-10-05T21:13:09.145Z,79.60
2018-10-05T21:15:39.648Z,79.09
2018-10-05T21:18:10.053Z,79.27
2018-10-05T21:20:41.583Z,79.20
2018-10-05T21:23:11.920Z,79.85
2018-10-05T21:25:42.070Z,79.42
2018-10-05T21:28:12.730Z,79.24
2018-10-05T21:30:42.920Z,79.81
2018-10-05T21:33:13.266Z,79.62
2018-10-05T21:35:43.387Z,79.89
2018-10-05T21:38:13.505Z,79.33
2018-10-05T21:40:43.636Z,78.12
2018-10-05T21:43:14.690Z,78.69
2018-10-05T21:45:44.799Z,78.13
2018-10-05T21:48:15.788Z,78.52
2018-10-05T21:50:46.103Z,78.77
2018-10-05T21:53:16.541Z,78.45
2018-10-05T21:55:47.513Z,78.50
2018-10-05T21:58:17.747Z,78.07
2018-10-05T22:00:48.067Z,78.34
2018-10-05T22:03:18.121Z,77.94
2018-10-05T22:05:48.518Z,78.19
2018-10-05T22:08:21.701Z,78.81
2018-10-05T22:10:52.110Z,77.46
2018-10-05T22:13:22.286Z,77.06
2018-10-05T22:15:53.106Z,76.97
2018-10-05T22:18:23.492Z,76.38
2018-10-05T22:20:53.852Z,76.27
2018-10-05T22:23:24.347Z,76.85
2018-10-05T22:25:54.876Z,76.29
2018-10-05T22:28:24.978Z,76.04
2018-10-05T22:30:56.694Z,75.82
2018-10-05T22:33:26.955Z,75.72
2018-10-05T22:35:57.270Z,75.35
2018-10-05T22:38:29.640Z,75.43
2018-10-05T22:41:01.760Z,75.41
2018-10-05T22:43:32.340Z,76.80
2018-10-05T22:46:03.109Z,75.60
2018-10-05T22:48:34.518Z,77.11
2018-10-05T22:51:04.669Z,77.48
2018-10-05T22:53:35.260Z,77.03
2018-10-05T22:56:05.323Z,76.40
2018-10-05T22:58:38.212Z,77.43
2018-10-05T23:01:10.095Z,78.28
2018-10-05T23:03:40.413Z,78.60
2018-10-05T23:06:10.913Z,79.46
2018-10-05T23:08:41.503Z,79.00
2018-10-05T23:11:11.921Z,78.41
2018-10-05T23:13:42.147Z,79.08
2018-10-05T23:16:14.783Z,78.71
2018-10-05T23:18:45.087Z,78.55
2018-10-05T23:21:15.307Z,78.43
2018-10-05T23:23:46.868Z,78.37
2018-10-05T23:26:18.116Z,78.83
2018-10-05T23:28:48.113Z,79.38
2018-10-05T23:31:19.372Z,78.41
2018-10-05T23:33:49.677Z,77.78
2018-10-05T23:36:20.093Z,77.94
2018-10-05T23:38:51.211Z,77.64
2018-10-05T23:41:21.807Z,78.00
2018-10-05T23:43:52.205Z,78.37
2018-10-05T23:46:22.400Z,78.87
2018-10-05T23:48:52.596Z,78.92
2018-10-05T23:51:23.250Z,78.44
2018-10-05T23:53:53.642Z,77.76
2018-10-05T23:56:24.061Z,78.57
2018-10-05T23:58:54.229Z,77.99
